createdAt,value
2019-06-26T00:00:48.418Z,1014.50
2019-06-26T00:01:48.446Z,1014.51
2019-06-26T00:02:48.404Z,1014.51
2019-06-26T00:03:48.400Z,1014.51
2019-06-26T00:04:48.380Z,1014.48
2019-06-26T00:05:48.394Z,1014.48
2019-06-26T00:06:48.365Z,1014.49
2019-06-26T00:07:48.368Z,1014.48
2019-06-26T00:08:48.379Z,1014.44
2019-06-26T00:09:48.329Z,1014.45
2019-06-26T00:10:48.314Z,1014.47
2019-06-26T00:11:48.313Z,1014.47
2019-06-26T00:12:48.334Z,1014.44
2019-06-26T00:13:48.306Z,1014.45
2019-06-26T00:14:48.288Z,1014.44
2019-06-26T00:15:48.300Z,1014.41
2019-06-26T00:16:48.301Z,1014.41
2019-06-26T00:17:48.300Z,1014.41
2019-06-26T00:18:48.260Z,1014.42
2019-06-26T00:19:48.284Z,1014.35
2019-06-26T00:20:48.214Z,1014.42
2019-06-26T00:21:48.198Z,1014.36
2019-06-26T00:22:48.190Z,1014.42
2019-06-26T00:23:48.239Z,1014.36
2019-06-26T00:24:48.198Z,1014.37
2019-06-26T00:25:48.166Z,1014.36
2019-06-26T00:26:48.153Z,1014.37
2019-06-26T00:27:48.123Z,1014.38
2019-06-26T00:28:48.148Z,1014.37
2019-06-26T00:29:48.151Z,1014.36
2019-06-26T00:30:48.101Z,1014.38
2019-06-26T00:31:48.106Z,1014.38
2019-06-26T00:32:48.071Z,1014.39
2019-06-26T00:33:48.084Z,1014.38
2019-06-26T00:34:48.082Z,1014.37
2019-06-26T00:35:48.064Z,1014.40
2019-06-26T00:36:48.055Z,1014.38
2019-06-26T00:37:48.032Z,1014.36
2019-06-26T00:38:48.036Z,1014.39
2019-06-26T00:39:48.066Z,1014.34
2019-06-26T00:40:47.992Z,1014.39
2019-06-26T00:41:47.989Z,1014.39
2019-06-26T00:42:47.987Z,1014.38
2019-06-26T00:43:47.952Z,1014.34
2019-06-26T00:44:48.000Z,1014.36
2019-06-26T00:45:47.941Z,1014.33
2019-06-26T00:46:47.946Z,1014.33
2019-06-26T00:47:47.935Z,1014.27
2019-06-26T00:48:47.898Z,1014.27
2019-06-26T00:49:47.910Z,1014.26
2019-06-26T00:50:47.927Z,1014.30
2019-06-26T00:51:47.879Z,1014.33
2019-06-26T00:52:47.881Z,1014.31
2019-06-26T00:53:47.890Z,1014.29
2019-06-26T00:54:47.874Z,1014.29
2019-06-26T00:55:47.877Z,1014.28
2019-06-26T00:56:47.834Z,1014.27
2019-06-26T00:57:47.803Z,1014.24
2019-06-26T00:58:47.858Z,1014.27
2019-06-26T00:59:48.692Z,1014.24
2019-06-26T01:00:47.775Z,1014.22
2019-06-26T01:01:47.844Z,1014.21
2019-06-26T01:02:47.827Z,1014.23
2019-06-26T01:03:47.741Z,1014.25
2019-06-26T01:04:47.726Z,1014.24
2019-06-26T01:05:47.736Z,1014.25
2019-06-26T01:06:47.793Z,1014.27
2019-06-26T01:07:47.716Z,1014.27
2019-06-26T01:08:47.691Z,1014.29
2019-06-26T01:09:47.786Z,1014.30
2019-06-26T01:10:47.672Z,1014.28
2019-06-26T01:11:47.761Z,1014.33
2019-06-26T01:12:47.637Z,1014.28
2019-06-26T01:13:57.810Z,1014.26
2019-06-26T01:14:48.627Z,1014.23
2019-06-26T01:15:47.620Z,1014.25
2019-06-26T01:16:47.607Z,1014.23
2019-06-26T01:17:47.629Z,1014.19
2019-06-26T01:18:47.593Z,1014.24
2019-06-26T01:19:48.182Z,1014.18
2019-06-26T01:20:47.561Z,1014.18
2019-06-26T01:21:47.622Z,1014.14
2019-06-26T01:22:47.573Z,1014.19
2019-06-26T01:23:47.530Z,1014.15
2019-06-26T01:24:47.529Z,1014.19
2019-06-26T01:25:47.568Z,1014.20
2019-06-26T01:26:47.513Z,1014.19
2019-06-26T01:27:47.518Z,1014.18
2019-06-26T01:28:47.483Z,1014.18
2019-06-26T01:29:47.535Z,1014.14
2019-06-26T01:30:47.460Z,1014.18
2019-06-26T01:31:47.445Z,1014.16
2019-06-26T01:32:47.448Z,1014.18
2019-06-26T01:33:47.446Z,1014.13
2019-06-26T01:34:47.469Z,1014.17
2019-06-26T01:35:47.406Z,1014.17
2019-06-26T01:36:47.393Z,1014.16
2019-06-26T01:37:47.397Z,1014.19
2019-06-26T01:38:47.384Z,1014.17
2019-06-26T01:39:47.373Z,1014.15
2019-06-26T01:40:47.341Z,1014.16
2019-06-26T01:41:47.340Z,1014.15
2019-06-26T01:42:47.326Z,1014.18
2019-06-26T01:43:47.323Z,1014.14
2019-06-26T01:44:47.315Z,1014.14
2019-06-26T01:45:47.340Z,1014.11
2019-06-26T01:46:47.329Z,1014.14
2019-06-26T01:47:47.297Z,1014.15
2019-06-26T01:48:47.255Z,1014.17
2019-06-26T01:49:47.268Z,1014.14
2019-06-26T01:50:47.341Z,1014.15
2019-06-26T01:51:47.437Z,1014.16
2019-06-26T01:52:47.258Z,1014.16
2019-06-26T01:53:47.229Z,1014.11
2019-06-26T01:54:47.267Z,1014.17
2019-06-26T01:55:47.205Z,1014.15
2019-06-26T01:56:47.174Z,1014.14
2019-06-26T01:57:47.176Z,1014.14
2019-06-26T01:58:47.191Z,1014.15
2019-06-26T01:59:47.199Z,1014.13
2019-06-26T02:00:47.170Z,1014.13
2019-06-26T02:01:47.122Z,1014.16
2019-06-26T02:02:47.127Z,1014.16
2019-06-26T02:03:47.119Z,1014.16
2019-06-26T02:04:47.129Z,1014.16
2019-06-26T02:05:47.340Z,1014.14
2019-06-26T02:06:47.077Z,1014.15
2019-06-26T02:07:47.074Z,1014.17
2019-06-26T02:08:47.375Z,1014.12
2019-06-26T02:09:47.056Z,1014.11
2019-06-26T02:10:47.022Z,1014.09
2019-06-26T02:11:47.135Z,1014.13
2019-06-26T02:12:47.002Z,1014.08
2019-06-26T02:13:47.012Z,1014.08
2019-06-26T02:14:46.980Z,1014.09
2019-06-26T02:15:46.967Z,1014.09
2019-06-26T02:16:46.956Z,1014.09
2019-06-26T02:17:46.957Z,1014.07
2019-06-26T02:18:46.945Z,1014.10
2019-06-26T02:19:46.963Z,1014.10
2019-06-26T02:20:46.932Z,1014.09
2019-06-26T02:21:46.992Z,1014.12
2019-06-26T02:22:49.540Z,1014.07
2019-06-26T02:23:46.903Z,1014.03
2019-06-26T02:24:46.870Z,1014.03
2019-06-26T02:25:46.862Z,1014.05
2019-06-26T02:26:46.886Z,1014.03
2019-06-26T02:27:46.902Z,1014.02
2019-06-26T02:28:46.841Z,1014.02
2019-06-26T02:29:46.838Z,1014.00
2019-06-26T02:30:46.816Z,1013.98
2019-06-26T02:31:46.859Z,1013.97
2019-06-26T02:32:46.780Z,1013.97
2019-06-26T02:33:46.820Z,1013.89
2019-06-26T02:34:46.780Z,1013.95
2019-06-26T02:35:46.762Z,1013.93
2019-06-26T02:36:46.793Z,1013.92
2019-06-26T02:37:46.765Z,1013.92
2019-06-26T02:38:46.711Z,1013.89
2019-06-26T02:39:46.752Z,1013.90
2019-06-26T02:40:46.719Z,1013.89
2019-06-26T02:41:46.697Z,1013.87
2019-06-26T02:42:46.697Z,1013.87
2019-06-26T02:43:46.728Z,1013.88
2019-06-26T02:44:53.381Z,1013.82
2019-06-26T02:45:47.639Z,1013.85
2019-06-26T02:46:46.663Z,1013.80
2019-06-26T02:47:46.634Z,1013.85
2019-06-26T02:48:46.647Z,1013.80
2019-06-26T02:49:46.611Z,1013.78
2019-06-26T02:50:46.592Z,1013.81
2019-06-26T02:51:46.693Z,1013.79
2019-06-26T02:52:46.572Z,1013.81
2019-06-26T02:53:46.651Z,1013.84
2019-06-26T02:54:46.589Z,1013.78
2019-06-26T02:55:46.576Z,1013.82
2019-06-26T02:56:46.588Z,1013.79
2019-06-26T02:57:46.540Z,1013.76
2019-06-26T02:58:46.535Z,1013.77
2019-06-26T02:59:46.548Z,1013.80
2019-06-26T03:00:46.497Z,1013.78
2019-06-26T03:01:46.489Z,1013.79
2019-06-26T03:02:46.495Z,1013.76
2019-06-26T03:03:46.469Z,1013.77
2019-06-26T03:04:46.454Z,1013.78
2019-06-26T03:05:46.487Z,1013.74
2019-06-26T03:06:46.446Z,1013.71
2019-06-26T03:07:46.431Z,1013.71
2019-06-26T03:08:46.434Z,1013.71
2019-06-26T03:09:46.425Z,1013.71
2019-06-26T03:10:46.400Z,1013.77
2019-06-26T03:11:46.385Z,1013.72
2019-06-26T03:12:46.472Z,1013.75
2019-06-26T03:13:46.360Z,1013.69
2019-06-26T03:14:46.349Z,1013.70
2019-06-26T03:15:50.190Z,1013.69
2019-06-26T03:16:46.333Z,1013.69
2019-06-26T03:17:55.423Z,1013.71
2019-06-26T03:18:47.303Z,1013.70
2019-06-26T03:19:46.286Z,1013.72
2019-06-26T03:20:46.328Z,1013.71
2019-06-26T03:21:46.271Z,1013.71
2019-06-26T03:22:46.277Z,1013.75
2019-06-26T03:23:46.273Z,1013.72
2019-06-26T03:24:46.252Z,1013.72
2019-06-26T03:25:46.283Z,1013.72
2019-06-26T03:26:46.248Z,1013.74
2019-06-26T03:27:46.228Z,1013.75
2019-06-26T03:28:46.744Z,1013.70
2019-06-26T03:29:46.276Z,1013.72
2019-06-26T03:30:46.228Z,1013.73
2019-06-26T03:31:46.240Z,1013.69
2019-06-26T03:32:46.202Z,1013.68
2019-06-26T03:33:46.145Z,1013.82
2019-06-26T03:34:46.175Z,1013.83
2019-06-26T03:35:46.171Z,1013.81
2019-06-26T03:36:46.152Z,1013.80
2019-06-26T03:37:46.122Z,1013.79
2019-06-26T03:38:46.105Z,1013.81
2019-06-26T03:39:46.090Z,1013.81
2019-06-26T03:40:46.093Z,1013.81
2019-06-26T03:41:46.106Z,1013.80
2019-06-26T03:42:46.116Z,1013.82
2019-06-26T03:43:46.055Z,1013.83
2019-06-26T03:44:46.030Z,1013.81
2019-06-26T03:45:46.108Z,1013.82
2019-06-26T03:46:46.107Z,1013.86
2019-06-26T03:47:46.035Z,1013.82
2019-06-26T03:48:46.010Z,1013.82
2019-06-26T03:49:45.979Z,1013.87
2019-06-26T03:50:45.961Z,1013.88
2019-06-26T03:51:46.008Z,1013.89
2019-06-26T03:52:45.980Z,1013.91
2019-06-26T03:53:45.977Z,1013.88
2019-06-26T03:54:45.933Z,1013.86
2019-06-26T03:55:45.942Z,1013.91
2019-06-26T03:56:45.890Z,1013.92
2019-06-26T03:57:45.904Z,1013.90
2019-06-26T03:58:46.005Z,1013.93
2019-06-26T03:59:45.889Z,1013.92
2019-06-26T04:00:45.871Z,1013.89
2019-06-26T04:01:45.846Z,1013.91
2019-06-26T04:02:45.944Z,1013.92
2019-06-26T04:03:45.875Z,1013.89
2019-06-26T04:04:45.826Z,1013.91
2019-06-26T04:05:45.820Z,1013.92
2019-06-26T04:06:45.802Z,1013.93
2019-06-26T04:07:45.791Z,1013.94
2019-06-26T04:08:45.868Z,1013.97
2019-06-26T04:09:45.756Z,1013.96
2019-06-26T04:10:45.747Z,1013.99
2019-06-26T04:11:46.768Z,1013.98
2019-06-26T04:12:45.807Z,1013.98
2019-06-26T04:13:45.754Z,1014.01
2019-06-26T04:14:45.727Z,1014.04
2019-06-26T04:15:45.699Z,1013.97
2019-06-26T04:16:45.685Z,1013.99
2019-06-26T04:17:45.789Z,1014.00
2019-06-26T04:18:45.771Z,1013.97
2019-06-26T04:19:45.728Z,1014.00
2019-06-26T04:20:45.645Z,1014.00
2019-06-26T04:21:45.663Z,1013.99
2019-06-26T04:22:48.747Z,1014.06
2019-06-26T04:23:45.605Z,1014.07
2019-06-26T04:24:45.598Z,1014.07
2019-06-26T04:25:45.598Z,1014.08
2019-06-26T04:26:45.608Z,1014.09
2019-06-26T04:27:45.567Z,1014.06
2019-06-26T04:28:45.556Z,1014.07
2019-06-26T04:29:45.573Z,1014.00
2019-06-26T04:30:46.251Z,1014.05
2019-06-26T04:31:45.524Z,1014.01
2019-06-26T04:32:48.398Z,1014.01
2019-06-26T04:33:45.555Z,1014.03
2019-06-26T04:34:45.529Z,1014.02
2019-06-26T04:35:47.298Z,1014.01
2019-06-26T04:36:45.461Z,1014.00
2019-06-26T04:37:46.025Z,1014.03
2019-06-26T04:38:49.947Z,1014.02
2019-06-26T04:39:45.443Z,1014.01
2019-06-26T04:40:45.467Z,1013.98
2019-06-26T04:41:45.446Z,1013.96
2019-06-26T04:42:49.791Z,1013.91
2019-06-26T04:43:56.883Z,1013.89
2019-06-26T04:44:48.591Z,1013.91
2019-06-26T04:45:57.753Z,1013.91
2019-06-26T04:46:46.365Z,1013.93
2019-06-26T04:47:45.435Z,1013.94
2019-06-26T04:48:45.448Z,1013.96
2019-06-26T04:49:48.102Z,1013.94
2019-06-26T04:50:50.603Z,1013.97
2019-06-26T04:51:49.110Z,1013.99
2019-06-26T04:52:47.231Z,1013.98
2019-06-26T04:53:48.026Z,1013.98
2019-06-26T04:54:48.213Z,1014.03
2019-06-26T04:55:46.257Z,1013.97
2019-06-26T04:56:58.130Z,1014.01
2019-06-26T04:57:45.255Z,1014.00
2019-06-26T04:58:45.243Z,1013.95
2019-06-26T04:59:45.214Z,1013.94
2019-06-26T05:00:45.205Z,1013.90
2019-06-26T05:01:45.203Z,1013.95
2019-06-26T05:02:45.192Z,1013.96
2019-06-26T05:03:45.219Z,1013.94
2019-06-26T05:04:45.187Z,1013.99
2019-06-26T05:05:45.373Z,1013.99
2019-06-26T05:06:45.310Z,1014.00
2019-06-26T05:07:45.687Z,1014.00
2019-06-26T05:08:45.547Z,1013.92
2019-06-26T05:09:47.417Z,1013.95
2019-06-26T05:10:51.268Z,1013.93
2019-06-26T05:11:45.975Z,1013.95
2019-06-26T05:12:45.094Z,1013.91
2019-06-26T05:13:45.063Z,1013.93
2019-06-26T05:14:45.062Z,1013.93
2019-06-26T05:15:45.066Z,1013.94
2019-06-26T05:16:45.039Z,1013.88
2019-06-26T05:17:45.041Z,1013.84
2019-06-26T05:18:45.013Z,1013.86
2019-06-26T05:19:45.057Z,1013.84
2019-06-26T05:20:45.009Z,1013.82
2019-06-26T05:21:45.033Z,1013.82
2019-06-26T05:22:44.977Z,1013.87
2019-06-26T05:23:44.983Z,1013.85
2019-06-26T05:24:46.536Z,1013.85
2019-06-26T05:25:45.050Z,1013.85
2019-06-26T05:26:45.067Z,1013.82
2019-06-26T05:27:44.920Z,1013.86
2019-06-26T05:28:44.916Z,1013.82
2019-06-26T05:29:44.921Z,1013.86
2019-06-26T05:30:44.961Z,1013.87
2019-06-26T05:31:44.941Z,1013.86
2019-06-26T05:32:44.900Z,1013.88
2019-06-26T05:33:44.899Z,1013.87
2019-06-26T05:34:44.854Z,1013.87
2019-06-26T05:37:03.307Z,1013.88
2019-06-26T05:38:05.877Z,1013.90
2019-06-26T05:39:04.218Z,1013.92
2019-06-26T05:40:03.139Z,1013.91
2019-06-26T05:41:03.034Z,1013.87
2019-06-26T05:42:06.562Z,1013.94
2019-06-26T05:44:20.432Z,1013.91
2019-06-26T05:45:20.092Z,1013.89
2019-06-26T05:46:30.592Z,1013.91
2019-06-26T05:47:22.099Z,1013.89
2019-06-26T05:48:20.005Z,1013.89
2019-06-26T05:49:20.022Z,1013.89
2019-06-26T05:50:19.969Z,1013.89
2019-06-26T05:51:19.958Z,1013.91
2019-06-26T05:52:20.015Z,1013.93
2019-06-26T05:53:19.956Z,1013.90
2019-06-26T05:54:19.962Z,1013.94
2019-06-26T05:55:19.952Z,1013.93
2019-06-26T05:56:19.926Z,1013.93
2019-06-26T05:57:19.946Z,1013.94
2019-06-26T05:58:19.954Z,1013.90
2019-06-26T05:59:19.954Z,1013.88
2019-06-26T06:00:19.931Z,1013.87
2019-06-26T06:01:19.899Z,1013.86
2019-06-26T06:02:19.903Z,1013.87
2019-06-26T06:03:19.865Z,1013.81
2019-06-26T06:04:19.861Z,1013.87
2019-06-26T06:05:19.850Z,1013.89
2019-06-26T06:06:19.842Z,1013.86
2019-06-26T06:07:19.833Z,1013.88
2019-06-26T06:08:19.833Z,1013.89
2019-06-26T06:09:19.795Z,1013.87
2019-06-26T06:10:19.781Z,1013.88
2019-06-26T06:11:19.948Z,1013.91
2019-06-26T06:12:19.761Z,1013.94
2019-06-26T06:13:19.751Z,1013.96
2019-06-26T06:14:19.755Z,1013.95
2019-06-26T06:15:19.741Z,1013.90
2019-06-26T06:16:19.757Z,1013.96
2019-06-26T06:17:19.705Z,1013.93
2019-06-26T06:18:19.692Z,1013.91
2019-06-26T06:19:19.812Z,1013.92
2019-06-26T06:20:19.744Z,1013.90
2019-06-26T06:21:19.659Z,1013.88
2019-06-26T06:22:19.655Z,1013.89
2019-06-26T06:23:19.709Z,1013.96
2019-06-26T06:24:19.703Z,1013.92
2019-06-26T06:25:21.486Z,1013.90
2019-06-26T06:26:19.669Z,1013.91
2019-06-26T06:27:19.602Z,1013.94
2019-06-26T06:28:19.622Z,1013.92
2019-06-26T06:29:19.651Z,1013.93
2019-06-26T06:30:19.584Z,1013.96
2019-06-26T06:31:19.546Z,1013.96
2019-06-26T06:32:19.548Z,1013.92
2019-06-26T06:33:19.535Z,1013.96
2019-06-26T06:34:19.512Z,1014.01
2019-06-26T06:35:19.556Z,1013.98
2019-06-26T06:36:19.532Z,1014.00
2019-06-26T06:37:19.493Z,1014.00
2019-06-26T06:38:19.479Z,1014.03
2019-06-26T06:39:19.481Z,1014.03
2019-06-26T06:40:19.450Z,1014.00
2019-06-26T06:41:19.496Z,1013.99
2019-06-26T06:42:19.422Z,1014.05
2019-06-26T06:43:19.423Z,1014.01
2019-06-26T06:44:19.422Z,1014.02
2019-06-26T06:45:19.472Z,1014.04
2019-06-26T06:46:19.435Z,1014.06
2019-06-26T06:47:19.377Z,1014.06
2019-06-26T06:48:19.387Z,1014.04
2019-06-26T06:49:19.363Z,1014.03
2019-06-26T06:50:19.392Z,1014.04
2019-06-26T06:51:19.359Z,1014.03
2019-06-26T06:52:19.339Z,1014.01
2019-06-26T06:53:19.333Z,1014.10
2019-06-26T06:54:19.387Z,1014.08
2019-06-26T06:55:19.352Z,1014.08
2019-06-26T06:56:19.330Z,1014.11
2019-06-26T06:57:19.309Z,1014.06
2019-06-26T06:58:19.281Z,1014.07
2019-06-26T06:59:19.248Z,1014.05
2019-06-26T07:00:19.256Z,1014.04
2019-06-26T07:01:19.232Z,1014.04
2019-06-26T07:02:19.227Z,1014.05
2019-06-26T07:03:19.299Z,1014.08
2019-06-26T07:04:19.262Z,1014.10
2019-06-26T07:05:19.214Z,1014.08
2019-06-26T07:06:19.190Z,1014.11
2019-06-26T07:07:19.266Z,1014.08
2019-06-26T07:08:19.189Z,1014.07
2019-06-26T07:09:19.192Z,1014.08
2019-06-26T07:10:19.163Z,1014.09
2019-06-26T07:11:19.154Z,1014.06
2019-06-26T07:12:20.919Z,1014.04
2019-06-26T07:13:19.127Z,1014.07
2019-06-26T07:14:19.120Z,1014.02
2019-06-26T07:15:19.104Z,1014.05
2019-06-26T07:16:19.103Z,1014.03
2019-06-26T07:17:21.105Z,1014.02
2019-06-26T07:18:19.133Z,1014.04
2019-06-26T07:19:19.055Z,1014.05
2019-06-26T07:20:19.064Z,1014.08
2019-06-26T07:21:19.058Z,1014.03
2019-06-26T07:22:19.026Z,1014.09
2019-06-26T07:23:19.086Z,1014.10
2019-06-26T07:24:19.003Z,1014.09
2019-06-26T07:25:19.003Z,1014.07
2019-06-26T07:26:19.015Z,1014.05
2019-06-26T07:27:18.962Z,1014.03
2019-06-26T07:28:19.029Z,1014.04
2019-06-26T07:29:18.996Z,1014.06
2019-06-26T07:30:18.941Z,1014.08
2019-06-26T07:31:18.992Z,1014.06
2019-06-26T07:32:18.908Z,1014.11
2019-06-26T07:33:18.907Z,1014.11
2019-06-26T07:34:18.916Z,1014.12
2019-06-26T07:35:18.878Z,1014.15
2019-06-26T07:36:18.891Z,1014.12
2019-06-26T07:37:18.903Z,1014.11
2019-06-26T07:38:18.879Z,1014.11
2019-06-26T07:39:18.848Z,1014.14
2019-06-26T07:40:18.833Z,1014.13
2019-06-26T07:41:18.820Z,1014.16
2019-06-26T07:42:18.826Z,1014.12
2019-06-26T07:43:18.835Z,1014.10
2019-06-26T07:44:18.794Z,1014.11
2019-06-26T07:45:18.819Z,1014.12
2019-06-26T07:46:18.785Z,1014.14
2019-06-26T07:47:23.518Z,1014.14
2019-06-26T07:48:19.755Z,1014.15
2019-06-26T07:49:18.756Z,1014.13
2019-06-26T07:50:18.755Z,1014.19
2019-06-26T07:51:18.993Z,1014.20
2019-06-26T07:52:18.699Z,1014.21
2019-06-26T07:53:18.763Z,1014.20
2019-06-26T07:54:18.704Z,1014.26
2019-06-26T07:55:18.714Z,1014.23
2019-06-26T07:56:18.679Z,1014.22
2019-06-26T07:57:19.398Z,1014.20
2019-06-26T07:58:18.671Z,1014.19
2019-06-26T07:59:19.016Z,1014.19
2019-06-26T08:00:18.646Z,1014.17
2019-06-26T08:01:18.637Z,1014.15
2019-06-26T08:02:18.625Z,1014.17
2019-06-26T08:03:18.660Z,1014.17
2019-06-26T08:04:18.583Z,1014.18
2019-06-26T08:05:18.578Z,1014.17
2019-06-26T08:06:18.594Z,1014.22
2019-06-26T08:07:18.565Z,1014.20
2019-06-26T08:08:19.005Z,1014.21
2019-06-26T08:09:18.525Z,1014.22
2019-06-26T08:10:18.562Z,1014.20
2019-06-26T08:11:18.510Z,1014.23
2019-06-26T08:12:18.502Z,1014.20
2019-06-26T08:13:18.554Z,1014.23
2019-06-26T08:14:18.498Z,1014.28
2019-06-26T08:15:18.551Z,1014.24
2019-06-26T08:16:18.460Z,1014.26
2019-06-26T08:17:18.491Z,1014.22
2019-06-26T08:18:18.549Z,1014.22
2019-06-26T08:19:18.442Z,1014.19
2019-06-26T08:20:18.434Z,1014.22
2019-06-26T08:21:18.414Z,1014.22
2019-06-26T08:22:18.613Z,1014.20
2019-06-26T08:23:18.392Z,1014.23
2019-06-26T08:24:18.377Z,1014.26
2019-06-26T08:25:18.379Z,1014.25
2019-06-26T08:26:18.373Z,1014.27
2019-06-26T08:27:18.367Z,1014.29
2019-06-26T08:28:18.340Z,1014.29
2019-06-26T08:29:18.407Z,1014.30
2019-06-26T08:30:18.399Z,1014.28
2019-06-26T08:31:18.326Z,1014.26
2019-06-26T08:32:18.342Z,1014.31
2019-06-26T08:33:18.295Z,1014.28
2019-06-26T08:34:18.331Z,1014.30
2019-06-26T08:35:18.380Z,1014.26
2019-06-26T08:36:18.318Z,1014.32
2019-06-26T08:37:18.343Z,1014.31
2019-06-26T08:38:18.229Z,1014.28
2019-06-26T08:39:18.257Z,1014.30
2019-06-26T08:40:18.442Z,1014.26
2019-06-26T08:41:18.210Z,1014.24
2019-06-26T08:42:18.247Z,1014.28
2019-06-26T08:43:18.205Z,1014.31
2019-06-26T08:44:18.166Z,1014.32
2019-06-26T08:45:18.185Z,1014.30
2019-06-26T08:46:18.259Z,1014.29
2019-06-26T08:47:18.168Z,1014.30
2019-06-26T08:48:37.903Z,1014.31
2019-06-26T08:49:25.603Z,1014.29
2019-06-26T08:50:19.151Z,1014.27
2019-06-26T08:51:18.204Z,1014.34
2019-06-26T08:52:18.113Z,1014.28
2019-06-26T08:53:18.911Z,1014.36
2019-06-26T08:54:18.174Z,1014.34
2019-06-26T08:55:18.067Z,1014.33
2019-06-26T08:56:18.613Z,1014.35
2019-06-26T08:57:18.039Z,1014.34
2019-06-26T08:58:18.218Z,1014.31
2019-06-26T08:59:18.196Z,1014.33
2019-06-26T09:00:18.310Z,1014.29
2019-06-26T09:01:18.041Z,1014.21
2019-06-26T09:02:18.047Z,1014.23
2019-06-26T09:03:18.006Z,1014.20
2019-06-26T09:04:18.003Z,1014.23
2019-06-26T09:05:17.964Z,1014.23
2019-06-26T09:06:18.075Z,1014.26
2019-06-26T09:07:17.977Z,1014.27
2019-06-26T09:08:18.089Z,1014.31
2019-06-26T09:09:17.939Z,1014.31
2019-06-26T09:10:28.952Z,1014.35
2019-06-26T09:11:18.117Z,1014.31
2019-06-26T09:12:18.080Z,1014.32
2019-06-26T09:13:18.083Z,1014.34
2019-06-26T09:14:18.513Z,1014.33
2019-06-26T09:15:17.869Z,1014.31
2019-06-26T09:16:17.899Z,1014.35
2019-06-26T09:17:17.893Z,1014.34
2019-06-26T09:18:34.068Z,1014.32
2019-06-26T09:19:18.876Z,1014.38
2019-06-26T09:20:17.819Z,1014.39
2019-06-26T09:21:17.845Z,1014.36
2019-06-26T09:22:17.820Z,1014.37
2019-06-26T09:23:18.165Z,1014.36
2019-06-26T09:24:17.829Z,1014.34
2019-06-26T09:25:22.179Z,1014.36
2019-06-26T09:26:17.774Z,1014.30
2019-06-26T09:27:18.445Z,1014.36
2019-06-26T09:28:17.786Z,1014.35
2019-06-26T09:29:17.764Z,1014.30
2019-06-26T09:30:17.754Z,1014.32
2019-06-26T09:31:17.798Z,1014.30
2019-06-26T09:32:18.525Z,1014.31
2019-06-26T09:33:17.687Z,1014.31
2019-06-26T09:34:17.726Z,1014.28
2019-06-26T09:35:17.736Z,1014.31
2019-06-26T09:36:28.094Z,1014.31
2019-06-26T09:37:18.408Z,1014.27
2019-06-26T09:38:17.957Z,1014.28
2019-06-26T09:39:18.086Z,1014.30
2019-06-26T09:40:17.749Z,1014.34
2019-06-26T09:41:19.453Z,1014.30
2019-06-26T09:42:19.754Z,1014.29
2019-06-26T09:43:17.722Z,1014.30
2019-06-26T09:44:17.616Z,1014.26
2019-06-26T09:45:17.587Z,1014.26
2019-06-26T09:46:17.656Z,1014.23
2019-06-26T09:47:17.622Z,1014.26
2019-06-26T09:48:17.558Z,1014.22
2019-06-26T09:49:17.581Z,1014.23
2019-06-26T09:50:17.811Z,1014.20
2019-06-26T09:51:17.595Z,1014.20
2019-06-26T09:52:17.478Z,1014.19
2019-06-26T09:53:17.987Z,1014.19
2019-06-26T09:54:17.487Z,1014.20
2019-06-26T09:55:17.484Z,1014.22
2019-06-26T09:56:17.512Z,1014.15
2019-06-26T09:57:17.468Z,1014.19
2019-06-26T09:58:17.419Z,1014.18
2019-06-26T09:59:17.417Z,1014.20
2019-06-26T10:00:17.524Z,1014.18
2019-06-26T10:01:17.473Z,1014.23
2019-06-26T10:02:17.422Z,1014.21
2019-06-26T10:03:17.376Z,1014.16
2019-06-26T10:04:17.427Z,1014.13
2019-06-26T10:05:17.523Z,1014.20
2019-06-26T10:06:17.346Z,1014.21
2019-06-26T10:07:17.369Z,1014.17
2019-06-26T10:08:17.320Z,1014.15
2019-06-26T10:09:17.335Z,1014.15
2019-06-26T10:10:17.357Z,1014.14
2019-06-26T10:11:17.301Z,1014.11
2019-06-26T10:12:17.342Z,1014.12
2019-06-26T10:13:17.283Z,1014.10
2019-06-26T10:14:17.510Z,1014.14
2019-06-26T10:15:17.245Z,1014.14
2019-06-26T10:16:17.287Z,1014.15
2019-06-26T10:17:17.250Z,1014.17
2019-06-26T10:18:17.252Z,1014.16
2019-06-26T10:19:17.251Z,1014.17
2019-06-26T10:20:17.232Z,1014.16
2019-06-26T10:21:17.556Z,1014.08
2019-06-26T10:22:17.211Z,1014.07
2019-06-26T10:23:18.046Z,1014.08
2019-06-26T10:24:17.184Z,1014.07
2019-06-26T10:25:17.188Z,1014.02
2019-06-26T10:26:17.418Z,1014.06
2019-06-26T10:27:17.128Z,1014.06
2019-06-26T10:28:17.194Z,1014.03
2019-06-26T10:29:17.247Z,1014.06
2019-06-26T10:30:17.228Z,1014.01
2019-06-26T10:31:18.537Z,1014.01
2019-06-26T10:32:17.090Z,1013.96
2019-06-26T10:33:17.072Z,1013.99
2019-06-26T10:34:17.140Z,1013.97
2019-06-26T10:35:17.137Z,1014.00
2019-06-26T10:36:17.053Z,1013.98
2019-06-26T10:37:17.057Z,1013.99
2019-06-26T10:38:17.016Z,1014.01
2019-06-26T10:39:17.048Z,1013.96
2019-06-26T10:40:17.037Z,1013.91
2019-06-26T10:41:16.994Z,1013.96
2019-06-26T10:42:17.000Z,1013.99
2019-06-26T10:43:17.041Z,1013.92
2019-06-26T10:44:16.998Z,1014.02
2019-06-26T10:45:16.942Z,1013.93
2019-06-26T10:46:16.936Z,1013.94
2019-06-26T10:47:16.963Z,1013.97
2019-06-26T10:48:16.923Z,1013.92
2019-06-26T10:49:27.117Z,1013.93
2019-06-26T10:50:17.916Z,1013.89
2019-06-26T10:51:18.545Z,1013.87
2019-06-26T10:52:16.923Z,1013.93
2019-06-26T10:53:17.502Z,1013.91
2019-06-26T10:54:16.864Z,1013.90
2019-06-26T10:55:16.959Z,1013.86
2019-06-26T10:56:16.979Z,1013.84
2019-06-26T10:57:17.502Z,1013.84
2019-06-26T10:58:16.841Z,1013.83
2019-06-26T10:59:16.849Z,1013.80
2019-06-26T11:00:16.812Z,1013.75
2019-06-26T11:01:17.626Z,1013.77
2019-06-26T11:02:17.509Z,1013.74
2019-06-26T11:03:16.775Z,1013.74
2019-06-26T11:04:16.824Z,1013.75
2019-06-26T11:05:16.817Z,1013.68
2019-06-26T11:06:16.751Z,1013.66
2019-06-26T11:07:16.729Z,1013.64
2019-06-26T11:08:16.754Z,1013.62
2019-06-26T11:09:16.697Z,1013.63
2019-06-26T11:10:16.759Z,1013.58
2019-06-26T11:11:16.772Z,1013.66
2019-06-26T11:12:16.679Z,1013.66
2019-06-26T11:13:16.687Z,1013.64
2019-06-26T11:14:16.763Z,1013.66
2019-06-26T11:15:16.695Z,1013.57
2019-06-26T11:16:16.662Z,1013.66
2019-06-26T11:17:16.651Z,1013.59
2019-06-26T11:18:16.623Z,1013.62
2019-06-26T11:19:16.630Z,1013.61
2019-06-26T11:20:16.576Z,1013.63
2019-06-26T11:21:16.594Z,1013.52
2019-06-26T11:22:16.660Z,1013.53
2019-06-26T11:23:16.607Z,1013.55
2019-06-26T11:24:16.585Z,1013.61
2019-06-26T11:25:16.568Z,1013.64
2019-06-26T11:26:16.544Z,1013.62
2019-06-26T11:27:16.623Z,1013.53
2019-06-26T11:28:16.510Z,1013.51
2019-06-26T11:29:16.504Z,1013.52
2019-06-26T11:30:16.566Z,1013.53
2019-06-26T11:31:16.492Z,1013.50
2019-06-26T11:32:16.521Z,1013.50
2019-06-26T11:33:16.475Z,1013.48
2019-06-26T11:34:16.474Z,1013.50
2019-06-26T11:35:16.463Z,1013.42
2019-06-26T11:36:16.439Z,1013.42
2019-06-26T11:56:12.052Z,1013.67
2019-06-26T11:56:40.153Z,1013.49
2019-06-26T11:58:15.052Z,1013.40
2019-06-26T11:58:38.701Z,1013.48
2019-06-26T11:59:38.372Z,1013.50
2019-06-26T12:00:41.458Z,1013.41
2019-06-26T12:01:42.251Z,1013.79
2019-06-26T12:02:56.896Z,1013.43
2019-06-26T12:03:38.290Z,1013.76
2019-06-26T12:04:38.363Z,1013.88
2019-06-26T12:05:39.290Z,1013.87
2019-06-26T12:06:39.149Z,1014.01
2019-06-26T12:07:38.299Z,1013.95
2019-06-26T12:08:38.288Z,1014.05
2019-06-26T12:09:38.248Z,1014.08
2019-06-26T12:10:38.251Z,1013.57
2019-06-26T12:11:38.262Z,1013.81
2019-06-26T12:12:38.229Z,1013.55
2019-06-26T12:13:38.207Z,1013.49
2019-06-26T12:14:38.250Z,1013.50
2019-06-26T12:15:38.670Z,1013.47
2019-06-26T12:16:38.183Z,1013.44
2019-06-26T12:17:38.255Z,1013.42
2019-06-26T12:18:38.180Z,1013.46
2019-06-26T12:19:38.163Z,1013.68
2019-06-26T12:20:38.176Z,1013.84
2019-06-26T12:21:38.153Z,1013.62
2019-06-26T12:22:38.230Z,1013.79
2019-06-26T12:23:38.134Z,1013.90
2019-06-26T12:24:40.159Z,1013.87
2019-06-26T12:25:38.194Z,1013.93
2019-06-26T12:26:38.060Z,1013.54